createdAt,value
2019-03-21T00:01:02.786Z,12.73
2019-03-21T00:03:51.205Z,15.93
2019-03-21T00:06:38.049Z,13.30
2019-03-21T00:09:24.366Z,12.00
2019-03-21T00:12:10.666Z,13.60
2019-03-21T00:15:30.046Z,15.10
2019-03-21T00:18:17.416Z,16.13
2019-03-21T00:21:03.853Z,14.43
2019-03-21T00:23:50.444Z,13.93
2019-03-21T00:26:37.725Z,15.10
2019-03-21T00:29:24.848Z,14.43
2019-03-21T00:32:11.307Z,15.27
2019-03-21T00:34:57.279Z,18.13
2019-03-21T00:37:44.027Z,18.93
2019-03-21T00:40:33.070Z,15.43
2019-03-21T00:43:19.163Z,14.77
2019-03-21T00:46:07.973Z,13.23
2019-03-21T00:48:54.345Z,16.63
2019-03-21T00:51:41.133Z,13.37
2019-03-21T00:54:27.761Z,20.27
2019-03-21T00:57:14.164Z,21.13
2019-03-21T01:00:00.784Z,16.43
2019-03-21T01:02:47.267Z,17.03
2019-03-21T01:05:33.459Z,17.13
2019-03-21T01:08:20.076Z,13.00
2019-03-21T01:11:07.236Z,14.60
2019-03-21T01:13:53.500Z,14.50
2019-03-21T01:16:39.653Z,16.37
2019-03-21T01:19:29.456Z,13.40
2019-03-21T01:22:15.583Z,16.30
2019-03-21T01:25:01.666Z,14.27
2019-03-21T01:27:47.895Z,14.67
2019-03-21T01:30:34.520Z,21.60
2019-03-21T01:33:20.576Z,15.17
2019-03-21T01:36:06.836Z,15.00
2019-03-21T01:38:53.268Z,15.27
2019-03-21T01:41:39.412Z,14.03
2019-03-21T01:44:25.529Z,19.37
2019-03-21T01:47:12.391Z,16.77
2019-03-21T01:49:58.455Z,20.00
2019-03-21T01:52:44.648Z,16.57
2019-03-21T01:55:31.263Z,18.67
2019-03-21T01:58:17.413Z,17.80
2019-03-21T02:01:04.279Z,17.53
2019-03-21T02:03:50.720Z,20.00
2019-03-21T02:06:36.791Z,18.90
2019-03-21T02:09:22.844Z,17.80
2019-03-21T02:12:09.780Z,20.10
2019-03-21T02:14:56.008Z,22.67
2019-03-21T02:17:42.281Z,24.67
2019-03-21T02:20:29.976Z,23.73
2019-03-21T02:23:16.253Z,19.43
2019-03-21T02:26:02.628Z,19.43
2019-03-21T02:28:49.104Z,21.93
2019-03-21T02:31:35.398Z,26.30
2019-03-21T02:34:21.776Z,21.90
2019-03-21T02:37:08.733Z,22.67
2019-03-21T02:39:59.920Z,22.60
2019-03-21T02:42:44.094Z,27.57
2019-03-21T02:45:30.329Z,27.37
2019-03-21T02:48:16.472Z,25.77
2019-03-21T02:51:03.035Z,28.07
2019-03-21T02:53:49.123Z,28.63
2019-03-21T02:56:35.594Z,30.27
2019-03-21T02:59:22.254Z,28.53
2019-03-21T03:02:08.657Z,30.47
2019-03-21T03:04:54.707Z,28.40
2019-03-21T03:07:41.733Z,28.37
2019-03-21T03:10:33.632Z,27.60
2019-03-21T03:13:19.814Z,26.73
2019-03-21T03:16:05.975Z,26.10
2019-03-21T03:18:52.235Z,26.60
2019-03-21T03:21:39.758Z,30.23
2019-03-21T03:24:28.746Z,31.13
2019-03-21T03:27:15.211Z,29.23
2019-03-21T03:30:02.379Z,30.23
2019-03-21T03:32:48.389Z,28.60
2019-03-21T03:35:34.416Z,30.97
2019-03-21T03:38:21.672Z,29.70
2019-03-21T03:41:08.624Z,28.00
2019-03-21T03:43:54.630Z,30.50
2019-03-21T03:46:41.310Z,27.33
2019-03-21T03:49:27.552Z,25.50
2019-03-21T03:52:13.660Z,28.17
2019-03-21T03:55:00.536Z,28.17
2019-03-21T03:57:47.566Z,31.67
2019-03-21T04:00:33.515Z,28.93
2019-03-21T04:03:20.602Z,25.20
2019-03-21T04:06:06.929Z,29.43
2019-03-21T04:08:53.129Z,32.67
2019-03-21T04:11:40.192Z,26.13
2019-03-21T04:14:26.955Z,24.70
2019-03-21T04:17:13.031Z,28.00
2019-03-21T04:19:59.761Z,28.30
2019-03-21T04:22:47.494Z,28.37
2019-03-21T04:25:37.136Z,27.03
2019-03-21T04:28:23.988Z,29.03
2019-03-21T04:31:10.183Z,26.53
2019-03-21T04:33:58.060Z,27.20
2019-03-21T04:36:44.625Z,28.10
2019-03-21T04:39:31.057Z,29.47
2019-03-21T04:42:17.237Z,26.90
2019-03-21T04:45:04.355Z,28.93
2019-03-21T04:47:50.709Z,28.00
2019-03-21T04:50:37.504Z,29.83
2019-03-21T04:53:23.473Z,30.83
2019-03-21T04:56:09.555Z,33.20
2019-03-21T04:58:56.168Z,29.77
2019-03-21T05:01:42.397Z,28.20
2019-03-21T05:04:28.559Z,27.37
2019-03-21T05:07:15.957Z,29.47
2019-03-21T05:10:02.253Z,25.93
2019-03-21T05:12:48.165Z,29.27
2019-03-21T05:15:36.457Z,30.60
2019-03-21T05:18:26.569Z,32.70
2019-03-21T05:21:14.284Z,30.70
2019-03-21T05:24:00.800Z,29.53
2019-03-21T05:26:46.814Z,29.97
2019-03-21T05:29:33.105Z,31.80
2019-03-21T05:32:19.394Z,35.63
2019-03-21T05:35:06.265Z,27.90
2019-03-21T05:37:53.177Z,31.20
2019-03-21T05:40:39.536Z,31.80
2019-03-21T05:43:30.293Z,27.83
2019-03-21T05:46:26.692Z,31.30
2019-03-21T05:49:06.507Z,27.97
2019-03-21T05:51:52.793Z,32.60
2019-03-21T05:54:39.669Z,26.77
2019-03-21T05:57:26.284Z,30.23
2019-03-21T06:00:16.786Z,33.83
2019-03-21T06:03:03.385Z,34.70
2019-03-21T06:05:53.098Z,34.63
2019-03-21T06:08:39.543Z,34.73
2019-03-21T06:11:26.277Z,32.77
2019-03-21T06:14:12.882Z,31.47
2019-03-21T06:16:59.612Z,31.10
2019-03-21T06:19:54.387Z,29.37
2019-03-21T06:23:14.954Z,31.17
2019-03-21T06:26:34.968Z,34.63
2019-03-21T06:29:21.097Z,42.13
2019-03-21T06:32:07.194Z,36.23
2019-03-21T06:34:54.328Z,35.23
2019-03-21T06:37:40.492Z,39.30
2019-03-21T06:40:26.713Z,30.63
2019-03-21T06:43:13.001Z,32.50
2019-03-21T06:45:59.934Z,38.97
2019-03-21T06:49:01.792Z,46.90
2019-03-21T06:51:48.850Z,31.83
2019-03-21T06:54:34.825Z,34.97
2019-03-21T06:57:21.631Z,37.07
2019-03-21T07:00:08.130Z,34.90
2019-03-21T07:02:54.339Z,30.40
2019-03-21T07:05:41.122Z,90.03
2019-03-21T07:08:27.314Z,40.13
2019-03-21T07:11:13.834Z,34.20
2019-03-21T07:14:00.221Z,29.13
2019-03-21T07:16:46.555Z,30.30
2019-03-21T07:19:32.858Z,28.23
2019-03-21T07:22:19.142Z,30.93
2019-03-21T07:25:06.672Z,29.47
2019-03-21T07:27:52.625Z,29.30
2019-03-21T07:30:40.038Z,28.67
2019-03-21T07:33:26.362Z,30.50
2019-03-21T07:36:13.131Z,24.53
2019-03-21T07:38:59.198Z,30.37
2019-03-21T07:41:45.517Z,24.30
2019-03-21T07:44:32.134Z,25.07
2019-03-21T07:47:18.393Z,24.90
2019-03-21T07:50:06.761Z,23.97
2019-03-21T07:52:52.992Z,23.20
2019-03-21T07:55:39.052Z,26.47
2019-03-21T07:58:25.175Z,27.10
2019-03-21T08:01:11.378Z,25.00
2019-03-21T08:03:57.639Z,26.10
2019-03-21T08:06:46.072Z,26.93
2019-03-21T08:09:32.967Z,30.23
2019-03-21T08:12:19.336Z,27.03
2019-03-21T08:15:07.871Z,29.67
2019-03-21T08:17:54.051Z,25.63
2019-03-21T08:20:40.191Z,29.50
2019-03-21T08:23:26.368Z,26.27
2019-03-21T08:26:12.380Z,23.80
2019-03-21T08:28:59.812Z,27.70
2019-03-21T08:31:46.045Z,29.23
2019-03-21T08:34:32.168Z,29.23
2019-03-21T08:37:23.080Z,28.83
2019-03-21T08:40:08.963Z,33.47
2019-03-21T08:42:56.882Z,29.57
2019-03-21T08:45:44.509Z,28.03
2019-03-21T08:48:30.812Z,27.53
2019-03-21T08:51:17.320Z,26.30
2019-03-21T08:54:03.682Z,27.00
2019-03-21T08:56:50.246Z,30.77
2019-03-21T08:59:36.844Z,28.13
2019-03-21T09:02:23.507Z,30.43
2019-03-21T09:05:10.017Z,36.13
2019-03-21T09:07:56.904Z,25.40
2019-03-21T09:10:44.024Z,28.60
2019-03-21T09:13:30.313Z,28.10
2019-03-21T09:16:16.788Z,27.80
2019-03-21T09:19:02.776Z,28.60
2019-03-21T09:21:49.399Z,29.83
2019-03-21T09:24:35.613Z,30.03
2019-03-21T09:27:21.905Z,27.30
2019-03-21T09:30:10.809Z,27.87
2019-03-21T09:33:04.589Z,25.43
2019-03-21T09:35:51.272Z,26.60
2019-03-21T09:38:37.360Z,24.60
2019-03-21T09:41:26.284Z,25.97
2019-03-21T09:44:12.737Z,28.43
2019-03-21T09:46:58.764Z,25.23
2019-03-21T09:49:45.031Z,24.57
2019-03-21T09:52:32.687Z,25.23
2019-03-21T09:55:19.252Z,26.73
2019-03-21T09:58:05.263Z,22.10
2019-03-21T10:00:51.696Z,27.23
2019-03-21T10:03:37.760Z,23.57
2019-03-21T10:06:24.128Z,25.43
2019-03-21T10:09:11.974Z,27.20
2019-03-21T10:12:08.867Z,22.20
2019-03-21T10:14:55.988Z,24.57
2019-03-21T10:17:42.025Z,26.07
2019-03-21T10:20:28.842Z,24.10
2019-03-21T10:23:15.842Z,25.13
2019-03-21T10:26:02.418Z,23.47
2019-03-21T10:29:00.277Z,25.13
2019-03-21T10:31:47.818Z,23.47
2019-03-21T10:34:34.662Z,25.87
2019-03-21T10:37:21.125Z,25.70
2019-03-21T10:40:07.082Z,24.30
2019-03-21T10:42:53.472Z,29.53
2019-03-21T10:45:42.182Z,23.73
2019-03-21T10:48:37.433Z,23.17
2019-03-21T10:51:24.156Z,28.10
2019-03-21T10:54:10.138Z,28.93
2019-03-21T10:56:57.095Z,26.60
2019-03-21T10:59:43.547Z,23.67
2019-03-21T11:02:29.702Z,20.90
2019-03-21T11:05:15.860Z,19.70
2019-03-21T11:08:02.160Z,21.90
2019-03-21T11:10:48.532Z,21.53
2019-03-21T11:13:34.907Z,20.80
2019-03-21T11:16:20.786Z,19.67
2019-03-21T11:19:07.373Z,19.10
2019-03-21T11:21:53.909Z,20.47
2019-03-21T11:24:40.257Z,17.67
2019-03-21T11:27:26.605Z,19.27
2019-03-21T11:30:16.704Z,19.67
2019-03-21T11:33:04.223Z,20.30
2019-03-21T11:35:50.521Z,21.30
2019-03-21T11:38:37.025Z,19.70
2019-03-21T11:41:23.958Z,18.97
2019-03-21T11:44:11.071Z,17.90
2019-03-21T11:46:57.860Z,24.93
2019-03-21T11:49:44.044Z,18.50
2019-03-21T11:52:30.535Z,21.80
2019-03-21T11:55:16.952Z,20.80
2019-03-21T11:58:03.532Z,20.67
2019-03-21T12:00:49.978Z,20.43
2019-03-21T12:03:36.793Z,23.07
2019-03-21T12:06:22.915Z,23.17
2019-03-21T12:09:09.062Z,21.83
2019-03-21T12:11:56.490Z,21.87
2019-03-21T12:14:43.910Z,20.80
2019-03-21T12:17:29.830Z,21.60
2019-03-21T12:20:37.230Z,20.70
2019-03-21T12:23:23.401Z,19.70
2019-03-21T12:26:09.818Z,19.50
2019-03-21T12:28:56.170Z,22.30
2019-03-21T12:31:42.322Z,19.97
2019-03-21T12:34:29.505Z,22.47
2019-03-21T12:37:16.522Z,20.53
2019-03-21T12:40:03.679Z,24.17
2019-03-21T12:42:49.971Z,24.73
2019-03-21T12:45:36.992Z,24.40
2019-03-21T12:48:22.954Z,18.93
2019-03-21T12:51:08.993Z,21.23
2019-03-21T12:53:55.385Z,19.27
2019-03-21T12:56:41.255Z,21.67
2019-03-21T12:59:30.413Z,22.43
2019-03-21T13:02:16.465Z,20.97
2019-03-21T13:05:03.696Z,19.80
2019-03-21T13:07:50.142Z,20.33
2019-03-21T13:10:36.466Z,24.27
2019-03-21T13:13:22.622Z,20.67
2019-03-21T13:16:09.625Z,22.67
2019-03-21T13:18:56.077Z,20.87
2019-03-21T13:21:42.539Z,21.03
2019-03-21T13:24:28.599Z,19.83
2019-03-21T13:27:15.060Z,20.70
2019-03-21T13:30:03.632Z,20.17
2019-03-21T13:32:49.612Z,20.47
2019-03-21T13:35:37.167Z,19.17
2019-03-21T13:38:23.534Z,20.13
2019-03-21T13:41:11.925Z,18.80
2019-03-21T13:43:57.943Z,17.77
2019-03-21T13:46:44.123Z,18.23
2019-03-21T13:49:30.205Z,20.07
2019-03-21T13:52:16.183Z,19.53
2019-03-21T13:55:02.382Z,20.90
2019-03-21T13:57:48.147Z,19.20
2019-03-21T14:00:36.135Z,22.53
2019-03-21T14:03:25.333Z,21.00
2019-03-21T14:06:11.143Z,22.00
2019-03-21T14:08:57.299Z,20.57
2019-03-21T14:11:43.946Z,21.33
2019-03-21T14:14:30.113Z,20.23
2019-03-21T14:17:21.877Z,24.33
2019-03-21T14:20:07.093Z,19.87
2019-03-21T14:22:53.034Z,20.13
2019-03-21T14:25:39.074Z,22.10
2019-03-21T14:28:25.274Z,21.67
2019-03-21T14:31:11.469Z,24.50
2019-03-21T14:33:58.290Z,19.57
2019-03-21T14:36:44.587Z,19.97
2019-03-21T14:39:31.047Z,23.37
2019-03-21T14:42:17.996Z,20.83
2019-03-21T14:45:05.407Z,22.07
2019-03-21T14:47:55.743Z,20.67
2019-03-21T14:50:42.708Z,26.73
2019-03-21T14:53:29.397Z,24.60
2019-03-21T14:56:16.160Z,33.57
2019-03-21T14:59:04.413Z,28.20
2019-03-21T15:01:50.646Z,22.23
2019-03-21T15:04:44.028Z,19.40
2019-03-21T15:07:39.320Z,20.90
2019-03-21T15:10:26.068Z,20.27
2019-03-21T15:13:12.218Z,22.50
2019-03-21T15:16:01.227Z,16.50
2019-03-21T15:18:47.684Z,17.83
2019-03-21T15:21:33.853Z,20.30
2019-03-21T15:24:25.388Z,22.87
2019-03-21T15:27:11.932Z,21.07
2019-03-21T15:29:58.236Z,21.43
2019-03-21T15:32:44.638Z,21.87
2019-03-21T15:35:30.854Z,20.53
2019-03-21T15:38:17.770Z,35.07
2019-03-21T15:41:04.334Z,22.50
2019-03-21T15:43:50.370Z,21.97
2019-03-21T15:46:36.620Z,21.30
2019-03-21T15:49:22.595Z,20.87
2019-03-21T15:52:08.980Z,19.70
2019-03-21T15:54:55.196Z,21.87
2019-03-21T15:57:42.281Z,17.13
2019-03-21T16:00:37.758Z,18.57
2019-03-21T16:03:36.104Z,14.70
2019-03-21T16:06:22.892Z,19.27
2019-03-21T16:09:09.612Z,17.57
2019-03-21T16:11:56.131Z,16.93
2019-03-21T16:14:43.272Z,19.97
2019-03-21T16:17:31.228Z,15.83
2019-03-21T16:20:17.624Z,19.20
2019-03-21T16:23:03.772Z,17.77
2019-03-21T16:25:52.317Z,17.63
2019-03-21T16:28:38.730Z,21.23
2019-03-21T16:31:25.423Z,19.03
2019-03-21T16:34:12.316Z,18.47
2019-03-21T16:36:58.438Z,20.53
2019-03-21T16:39:45.133Z,17.93
2019-03-21T16:42:31.231Z,17.57
2019-03-21T16:45:17.634Z,19.03
2019-03-21T16:48:04.449Z,17.40
2019-03-21T16:50:51.949Z,17.73
2019-03-21T16:53:38.043Z,17.13
2019-03-21T16:56:24.073Z,18.77
2019-03-21T16:59:10.929Z,20.50
2019-03-21T17:01:57.084Z,21.03
2019-03-21T17:04:43.388Z,19.53
2019-03-21T17:07:32.111Z,22.50
2019-03-21T17:10:18.411Z,19.73
2019-03-21T17:13:05.108Z,17.63
2019-03-21T17:15:52.706Z,19.47
2019-03-21T17:18:38.884Z,20.20
2019-03-21T17:21:25.007Z,20.90
2019-03-21T17:24:11.487Z,21.33
2019-03-21T17:26:57.709Z,20.10
2019-03-21T17:29:44.463Z,20.67
2019-03-21T17:32:30.554Z,18.73
2019-03-21T17:35:16.885Z,24.77
2019-03-21T17:38:04.839Z,20.80
2019-03-21T17:40:52.308Z,20.53
2019-03-21T17:43:38.501Z,23.17
2019-03-21T17:46:24.622Z,24.40
2019-03-21T17:49:15.840Z,21.63
2019-03-21T17:52:01.974Z,22.17
2019-03-21T17:54:48.747Z,19.73
2019-03-21T17:57:35.021Z,23.27
2019-03-21T18:00:24.109Z,21.20
2019-03-21T18:03:12.065Z,26.67
2019-03-21T18:05:58.491Z,23.67
2019-03-21T18:08:44.512Z,26.50
2019-03-21T18:11:32.183Z,26.77
2019-03-21T18:14:18.468Z,30.80
2019-03-21T18:17:07.451Z,27.73
2019-03-21T18:19:53.732Z,27.47
2019-03-21T18:22:40.656Z,26.57
2019-03-21T18:25:30.085Z,31.97
2019-03-21T18:28:16.532Z,30.40
2019-03-21T18:31:02.938Z,26.73
2019-03-21T18:33:49.065Z,29.97
2019-03-21T18:36:35.247Z,27.83
2019-03-21T18:39:21.302Z,28.57
2019-03-21T18:42:07.864Z,32.93
2019-03-21T18:44:54.792Z,31.37
2019-03-21T18:47:41.265Z,40.47
2019-03-21T18:50:27.748Z,39.90
2019-03-21T18:53:14.319Z,28.97
2019-03-21T18:56:05.041Z,30.83
2019-03-21T18:58:51.651Z,39.47
2019-03-21T19:01:37.955Z,59.20
2019-03-21T19:04:25.280Z,36.70
2019-03-21T19:07:12.298Z,44.67
2019-03-21T19:09:58.661Z,52.23
2019-03-21T19:12:46.054Z,34.20
2019-03-21T19:15:32.519Z,41.47
2019-03-21T19:18:18.785Z,44.30
2019-03-21T19:21:04.800Z,41.60
2019-03-21T19:23:50.967Z,41.40
2019-03-21T19:26:37.501Z,36.53
2019-03-21T19:29:24.090Z,42.63
2019-03-21T19:32:10.168Z,36.13
2019-03-21T19:34:57.766Z,38.70
2019-03-21T19:37:44.920Z,39.50
2019-03-21T19:40:31.695Z,47.07
2019-03-21T19:43:17.776Z,37.20
2019-03-21T19:46:04.403Z,37.00
2019-03-21T19:48:50.712Z,38.57
2019-03-21T19:51:40.016Z,36.47
2019-03-21T19:54:26.559Z,39.80
2019-03-21T19:57:12.782Z,39.37
2019-03-21T19:59:58.719Z,36.67
2019-03-21T20:02:46.392Z,38.47
2019-03-21T20:05:32.988Z,41.67
2019-03-21T20:08:19.540Z,41.60
2019-03-21T20:11:06.273Z,36.13
2019-03-21T20:13:52.665Z,34.10
2019-03-21T20:16:38.842Z,43.30
2019-03-21T20:19:25.460Z,40.13
2019-03-21T20:22:12.262Z,47.30
2019-03-21T20:24:58.623Z,42.30
2019-03-21T20:27:44.751Z,45.40
2019-03-21T20:30:31.224Z,49.07
2019-03-21T20:33:17.869Z,50.97
2019-03-21T20:36:04.047Z,44.87
2019-03-21T20:38:50.841Z,48.50
2019-03-21T20:41:37.116Z,45.67
2019-03-21T20:44:24.802Z,47.53
2019-03-21T20:47:10.967Z,44.30
2019-03-21T20:49:56.982Z,44.27
2019-03-21T20:52:43.602Z,46.80
2019-03-21T20:55:30.027Z,42.40
2019-03-21T20:58:16.135Z,50.10
2019-03-21T21:01:03.623Z,47.13
2019-03-21T21:03:50.966Z,47.03
2019-03-21T21:06:37.217Z,49.43
2019-03-21T21:09:23.955Z,52.63
2019-03-21T21:12:10.031Z,43.73
2019-03-21T21:14:56.203Z,47.37
2019-03-21T21:17:43.382Z,42.13
2019-03-21T21:20:29.728Z,49.23
2019-03-21T21:23:15.824Z,52.93
2019-03-21T21:26:05.744Z,50.70
2019-03-21T21:28:50.263Z,54.57
2019-03-21T21:31:36.915Z,49.07
2019-03-21T21:34:23.227Z,49.03
2019-03-21T21:37:09.703Z,57.10
2019-03-21T21:39:56.646Z,49.23
2019-03-21T21:42:42.948Z,54.47
2019-03-21T21:45:29.963Z,56.07
2019-03-21T21:48:17.167Z,56.87
2019-03-21T21:51:04.215Z,57.43
2019-03-21T21:53:50.636Z,51.83
2019-03-21T21:56:36.939Z,62.07
2019-03-21T21:59:23.338Z,60.00
2019-03-21T22:02:09.876Z,55.20
2019-03-21T22:04:56.625Z,56.17
2019-03-21T22:07:43.251Z,61.53
2019-03-21T22:10:29.800Z,56.67
2019-03-21T22:13:15.911Z,58.17
2019-03-21T22:16:02.175Z,62.30
2019-03-21T22:18:48.779Z,73.23
2019-03-21T22:21:35.142Z,70.97
2019-03-21T22:24:21.205Z,64.63
2019-03-21T22:27:07.376Z,58.53
2019-03-21T22:29:53.367Z,58.63
2019-03-21T22:32:40.704Z,58.50
2019-03-21T22:35:26.903Z,59.50
2019-03-21T22:38:13.059Z,62.17
2019-03-21T22:41:00.300Z,60.30
2019-03-21T22:43:46.534Z,60.20
2019-03-21T22:46:33.815Z,65.73
2019-03-21T22:49:20.731Z,63.90
2019-03-21T22:52:06.663Z,59.60
2019-03-21T22:54:53.290Z,63.37
2019-03-21T22:57:39.618Z,63.63
